createdAt,value
2017-06-30T00:02:07.396Z,91.70
2017-06-30T00:04:33.836Z,91.60
2017-06-30T00:07:01.010Z,91.70
2017-06-30T00:09:28.194Z,91.70
2017-06-30T00:11:54.753Z,91.70
2017-06-30T00:14:21.182Z,91.80
2017-06-30T00:16:48.587Z,91.90
2017-06-30T00:19:15.065Z,91.90
2017-06-30T00:21:41.551Z,92.00
2017-06-30T00:24:08.022Z,92.10
2017-06-30T00:26:34.494Z,92.10
2017-06-30T00:29:01.690Z,92.20
2017-06-30T00:31:28.142Z,92.20
2017-06-30T00:33:54.574Z,92.20
2017-06-30T00:36:20.986Z,92.30
2017-06-30T00:38:47.432Z,92.40
2017-06-30T00:41:13.864Z,92.40
2017-06-30T00:43:40.300Z,92.50
2017-06-30T00:46:08.052Z,92.60
2017-06-30T00:48:34.972Z,92.60
2017-06-30T00:51:01.412Z,92.60
2017-06-30T00:53:28.614Z,93.00
2017-06-30T00:55:55.085Z,92.60
2017-06-30T00:58:21.615Z,92.70
2017-06-30T01:00:48.064Z,92.70
2017-06-30T01:03:15.225Z,92.80
2017-06-30T01:05:42.430Z,92.80
2017-06-30T01:08:08.925Z,92.80
2017-06-30T01:10:35.847Z,92.90
2017-06-30T01:13:02.280Z,92.90
2017-06-30T01:15:29.483Z,93.00
2017-06-30T01:17:55.919Z,92.90
2017-06-30T01:20:23.198Z,92.80
2017-06-30T01:22:49.615Z,92.80
2017-06-30T01:25:16.067Z,92.80
2017-06-30T01:27:42.517Z,92.70
2017-06-30T01:30:09.839Z,92.80
2017-06-30T01:32:36.326Z,92.70
2017-06-30T01:35:02.784Z,92.70
2017-06-30T01:37:29.229Z,92.70
2017-06-30T01:39:56.084Z,92.70
2017-06-30T01:42:22.630Z,92.70
2017-06-30T01:44:49.151Z,92.60
2017-06-30T01:47:15.613Z,92.50
2017-06-30T01:49:42.204Z,92.40
2017-06-30T01:52:08.662Z,92.30
2017-06-30T01:54:35.182Z,92.20
2017-06-30T01:57:01.778Z,92.10
2017-06-30T01:59:28.699Z,91.90
2017-06-30T02:01:55.205Z,91.90
2017-06-30T02:04:21.623Z,91.70
2017-06-30T02:06:48.071Z,91.60
2017-06-30T02:09:14.537Z,91.60
2017-06-30T02:11:41.023Z,91.60
2017-06-30T02:14:08.077Z,91.50
2017-06-30T02:16:35.594Z,91.90
2017-06-30T02:19:02.659Z,91.50
2017-06-30T02:21:29.201Z,91.50
2017-06-30T02:23:55.706Z,91.50
2017-06-30T02:26:22.157Z,91.50
2017-06-30T02:28:48.776Z,91.50
2017-06-30T02:31:15.740Z,91.50
2017-06-30T02:33:42.204Z,91.40
2017-06-30T02:36:08.667Z,91.40
2017-06-30T02:38:35.137Z,91.30
2017-06-30T02:41:01.567Z,91.20
2017-06-30T02:43:28.046Z,91.20
2017-06-30T02:45:54.582Z,91.20
2017-06-30T02:48:21.534Z,91.10
2017-06-30T02:50:48.716Z,91.00
2017-06-30T02:53:16.220Z,91.00
2017-06-30T02:55:42.668Z,91.00
2017-06-30T02:58:09.115Z,91.00
2017-06-30T03:00:36.411Z,91.00
2017-06-30T03:03:02.852Z,91.00
2017-06-30T03:05:29.293Z,91.00
2017-06-30T03:07:56.497Z,91.10
2017-06-30T03:10:23.029Z,91.10
2017-06-30T03:12:49.509Z,91.10
2017-06-30T03:15:15.925Z,91.10
2017-06-30T03:17:43.117Z,91.40
2017-06-30T03:20:09.549Z,91.00
2017-06-30T03:22:36.727Z,91.20
2017-06-30T03:25:03.936Z,91.20
2017-06-30T03:27:30.394Z,91.00
2017-06-30T03:29:57.162Z,91.00
2017-06-30T03:32:23.691Z,91.00
2017-06-30T03:34:50.165Z,91.00
2017-06-30T03:37:16.626Z,91.00
2017-06-30T03:39:43.042Z,91.00
2017-06-30T03:42:10.948Z,91.00
2017-06-30T03:44:37.420Z,91.00
2017-06-30T03:47:03.846Z,91.00
2017-06-30T03:49:31.238Z,91.00
2017-06-30T03:51:57.796Z,91.00
2017-06-30T03:54:24.353Z,90.90
2017-06-30T03:56:50.911Z,90.90
2017-06-30T03:59:17.361Z,90.80
2017-06-30T04:01:43.811Z,90.80
2017-06-30T04:04:10.981Z,90.70
2017-06-30T04:06:38.497Z,90.70
2017-06-30T04:09:05.048Z,90.70
2017-06-30T04:11:31.469Z,90.70
2017-06-30T04:13:58.687Z,90.50
2017-06-30T04:16:26.103Z,90.40
2017-06-30T04:18:52.573Z,90.40
2017-06-30T04:21:19.870Z,90.60
2017-06-30T04:23:46.433Z,90.30
2017-06-30T04:26:12.878Z,90.20
2017-06-30T04:28:40.330Z,90.30
2017-06-30T04:31:06.784Z,90.30
2017-06-30T04:33:33.280Z,90.20
2017-06-30T04:35:59.712Z,90.20
2017-06-30T04:38:27.008Z,89.90
2017-06-30T04:40:53.566Z,89.90
2017-06-30T04:43:20.034Z,89.80
2017-06-30T04:45:46.484Z,89.60
2017-06-30T04:48:12.928Z,89.40
2017-06-30T04:50:40.105Z,89.10
2017-06-30T04:53:06.555Z,89.20
2017-06-30T04:55:33.745Z,88.60
2017-06-30T04:58:00.229Z,88.60
2017-06-30T05:00:26.781Z,88.30
2017-06-30T05:02:53.225Z,88.10
2017-06-30T05:05:19.904Z,87.80
2017-06-30T05:07:46.395Z,87.60
2017-06-30T05:10:12.823Z,87.50
2017-06-30T05:12:39.329Z,87.40
2017-06-30T05:15:06.500Z,87.20
2017-06-30T05:17:33.678Z,87.10
2017-06-30T05:20:00.909Z,87.10
2017-06-30T05:22:27.317Z,87.10
2017-06-30T05:24:53.744Z,86.90
2017-06-30T05:27:20.932Z,86.20
2017-06-30T05:29:48.088Z,86.00
2017-06-30T05:32:15.232Z,86.10
2017-06-30T05:34:41.656Z,86.10
2017-06-30T05:37:08.192Z,86.70
2017-06-30T05:39:34.698Z,87.00
2017-06-30T05:42:01.540Z,87.20
2017-06-30T05:44:27.969Z,87.30
2017-06-30T05:46:54.425Z,87.10
2017-06-30T05:49:21.803Z,87.20
2017-06-30T05:51:48.233Z,87.10
2017-06-30T05:54:14.653Z,87.00
2017-06-30T05:56:41.683Z,86.70
2017-06-30T05:59:08.123Z,86.20
2017-06-30T06:01:35.289Z,86.20
2017-06-30T06:04:02.467Z,83.10
2017-06-30T06:06:29.653Z,81.60
2017-06-30T06:08:56.149Z,81.50
2017-06-30T06:11:22.666Z,80.50
2017-06-30T06:13:49.858Z,80.40
2017-06-30T06:16:16.400Z,80.20
2017-06-30T06:18:42.850Z,80.30
2017-06-30T06:21:10.017Z,79.70
2017-06-30T06:23:37.253Z,78.70
2017-06-30T06:26:03.706Z,78.70
2017-06-30T06:28:30.770Z,76.90
2017-06-30T06:30:57.224Z,76.20
2017-06-30T06:33:23.685Z,75.90
2017-06-30T06:36:05.053Z,76.00
2017-06-30T06:38:31.494Z,78.00
2017-06-30T06:40:57.997Z,78.70
2017-06-30T06:43:24.599Z,79.70
2017-06-30T06:45:51.158Z,81.00
2017-06-30T06:48:17.720Z,82.70
2017-06-30T06:50:44.159Z,84.70
2017-06-30T06:53:11.395Z,86.90
2017-06-30T06:55:38.498Z,86.80
2017-06-30T06:58:05.711Z,87.80
2017-06-30T07:00:32.173Z,87.70
2017-06-30T07:02:58.607Z,88.20
2017-06-30T07:05:25.081Z,88.70
2017-06-30T07:07:51.520Z,89.20
2017-06-30T07:10:17.971Z,89.10
2017-06-30T07:12:44.531Z,88.80
2017-06-30T07:15:11.021Z,89.00
2017-06-30T07:17:37.494Z,88.20
2017-06-30T07:20:04.470Z,87.80
2017-06-30T07:22:31.068Z,88.00
2017-06-30T07:24:58.342Z,87.50
2017-06-30T07:27:24.762Z,87.50
2017-06-30T07:29:51.226Z,87.20
2017-06-30T07:32:17.696Z,84.90
2017-06-30T07:34:44.987Z,81.30
2017-06-30T07:37:11.545Z,80.30
2017-06-30T07:39:37.993Z,81.00
2017-06-30T07:42:05.179Z,79.90
2017-06-30T07:44:31.610Z,79.90
2017-06-30T07:46:58.789Z,79.00
2017-06-30T07:49:26.074Z,77.50
2017-06-30T07:51:52.555Z,77.50
2017-06-30T07:54:19.004Z,76.90
2017-06-30T07:56:45.477Z,76.20
2017-06-30T07:59:11.902Z,77.30
2017-06-30T08:01:38.322Z,75.20
2017-06-30T08:04:04.817Z,73.30
2017-06-30T08:06:31.302Z,72.60
2017-06-30T08:08:57.740Z,71.00
2017-06-30T08:11:24.282Z,68.80
2017-06-30T08:13:50.714Z,66.40
2017-06-30T08:16:17.202Z,64.20
2017-06-30T08:18:43.710Z,62.10
2017-06-30T08:21:10.183Z,60.30
2017-06-30T08:23:38.053Z,58.40
2017-06-30T08:26:04.543Z,57.30
2017-06-30T08:28:31.828Z,59.50
2017-06-30T08:30:58.298Z,59.50
2017-06-30T08:33:24.944Z,61.00
2017-06-30T08:35:51.424Z,63.20
2017-06-30T08:38:17.870Z,64.90
2017-06-30T08:40:44.417Z,66.40
2017-06-30T08:43:10.971Z,67.00
2017-06-30T08:45:38.127Z,68.00
2017-06-30T08:48:05.356Z,68.00
2017-06-30T08:50:31.813Z,67.90
2017-06-30T08:52:58.345Z,67.70
2017-06-30T08:55:24.893Z,67.80
2017-06-30T08:57:51.343Z,68.20
2017-06-30T09:00:18.565Z,67.50
2017-06-30T09:02:45.077Z,65.60
2017-06-30T09:05:12.977Z,64.50
2017-06-30T09:07:39.438Z,64.50
2017-06-30T09:10:06.065Z,64.40
2017-06-30T09:12:33.464Z,62.50
2017-06-30T09:14:59.906Z,62.30
2017-06-30T09:17:27.190Z,62.50
2017-06-30T09:19:53.746Z,62.40
2017-06-30T09:22:20.240Z,63.60
2017-06-30T09:24:46.762Z,63.70
2017-06-30T09:27:13.936Z,62.80
2017-06-30T09:29:41.513Z,61.70
2017-06-30T09:32:07.966Z,61.50
2017-06-30T09:34:35.119Z,62.50
2017-06-30T09:37:01.905Z,61.70
2017-06-30T09:39:28.311Z,61.00
2017-06-30T09:41:55.427Z,61.30
2017-06-30T09:44:21.941Z,60.40
2017-06-30T09:46:48.755Z,60.50
2017-06-30T09:49:15.803Z,59.70
2017-06-30T09:51:43.097Z,58.20
2017-06-30T09:54:09.570Z,58.20
2017-06-30T09:56:36.224Z,57.70
2017-06-30T09:59:02.654Z,58.10
2017-06-30T10:01:29.834Z,57.80
2017-06-30T10:03:57.119Z,58.10
2017-06-30T10:06:23.586Z,58.00
2017-06-30T10:08:50.030Z,57.40
2017-06-30T10:11:17.461Z,57.60
2017-06-30T10:13:43.966Z,57.60
2017-06-30T10:16:10.419Z,57.80
2017-06-30T10:18:36.978Z,56.50
2017-06-30T10:21:03.471Z,56.20
2017-06-30T10:23:30.018Z,56.10
2017-06-30T10:26:11.483Z,56.30
2017-06-30T10:28:37.935Z,57.20
2017-06-30T10:31:05.199Z,57.30
2017-06-30T10:33:32.469Z,56.20
2017-06-30T10:35:59.764Z,56.60
2017-06-30T10:38:26.425Z,56.00
2017-06-30T10:40:53.033Z,54.80
2017-06-30T10:43:19.743Z,54.60
2017-06-30T10:45:48.079Z,54.20
2017-06-30T10:48:14.653Z,53.40
2017-06-30T10:50:41.539Z,53.20
2017-06-30T10:53:08.842Z,54.20
2017-06-30T10:55:35.397Z,53.60
2017-06-30T10:58:02.140Z,53.00
2017-06-30T11:00:29.748Z,52.20
2017-06-30T11:02:56.406Z,52.20
2017-06-30T11:05:23.166Z,52.30
2017-06-30T11:07:49.628Z,52.50
2017-06-30T11:10:16.396Z,52.90
2017-06-30T11:12:42.848Z,53.50
2017-06-30T11:15:09.404Z,54.20
2017-06-30T11:17:36.379Z,54.70
2017-06-30T11:20:02.928Z,55.40
2017-06-30T11:22:29.898Z,55.60
2017-06-30T11:24:56.669Z,56.60
2017-06-30T11:27:23.102Z,57.50
2017-06-30T11:29:49.581Z,58.30
2017-06-30T11:32:16.435Z,58.10
2017-06-30T11:34:43.863Z,57.90
2017-06-30T11:37:10.318Z,57.20
2017-06-30T11:39:36.877Z,56.70
2017-06-30T11:42:03.323Z,57.90
2017-06-30T11:44:29.750Z,60.70
2017-06-30T11:46:56.298Z,63.80
2017-06-30T11:49:22.762Z,66.20
2017-06-30T11:51:49.218Z,68.40
2017-06-30T11:54:16.576Z,68.90
2017-06-30T11:56:43.728Z,69.50
2017-06-30T11:59:10.281Z,69.50
2017-06-30T12:01:36.671Z,69.40
2017-06-30T12:04:03.116Z,68.70
2017-06-30T12:06:30.401Z,68.30
2017-06-30T12:08:56.960Z,68.30
2017-06-30T12:11:23.407Z,68.20
2017-06-30T12:13:50.687Z,66.40
2017-06-30T12:16:17.183Z,66.40
2017-06-30T12:18:44.281Z,65.80
2017-06-30T12:21:10.698Z,64.40
2017-06-30T12:23:37.167Z,61.70
2017-06-30T12:26:03.615Z,60.40
2017-06-30T12:28:30.079Z,59.10
2017-06-30T12:30:56.599Z,59.10
2017-06-30T12:33:22.946Z,58.70
2017-06-30T12:35:49.487Z,58.50
2017-06-30T12:38:16.795Z,59.30
2017-06-30T12:40:43.309Z,58.50
2017-06-30T12:43:09.799Z,58.80
2017-06-30T12:45:36.304Z,58.10
2017-06-30T12:48:02.779Z,58.30
2017-06-30T12:50:29.213Z,57.70
2017-06-30T12:52:55.730Z,56.50
2017-06-30T12:55:22.209Z,56.80
2017-06-30T12:57:48.656Z,56.10
2017-06-30T13:00:15.204Z,55.10
2017-06-30T13:02:41.657Z,53.40
2017-06-30T13:05:08.145Z,53.00
2017-06-30T13:07:34.634Z,53.60
2017-06-30T13:10:01.109Z,54.00
2017-06-30T13:12:28.298Z,55.10
2017-06-30T13:14:55.207Z,55.10
2017-06-30T13:17:21.655Z,55.40
2017-06-30T13:19:48.138Z,55.80
2017-06-30T13:22:14.618Z,55.40
2017-06-30T13:24:41.906Z,55.60
2017-06-30T13:27:08.405Z,55.50
2017-06-30T13:29:35.119Z,55.40
2017-06-30T13:32:01.596Z,55.10
2017-06-30T13:34:28.140Z,55.50
2017-06-30T13:36:54.698Z,54.40
2017-06-30T13:39:21.259Z,54.70
2017-06-30T13:41:47.814Z,54.50
2017-06-30T13:44:14.373Z,54.30
2017-06-30T13:46:41.434Z,52.70
2017-06-30T13:49:08.633Z,51.40
2017-06-30T13:51:35.109Z,51.10
2017-06-30T13:54:01.632Z,51.60
2017-06-30T13:56:28.501Z,51.90
2017-06-30T13:58:55.359Z,51.50
2017-06-30T14:01:21.809Z,51.10
2017-06-30T14:03:48.964Z,51.10
2017-06-30T14:06:16.206Z,51.50
2017-06-30T14:08:42.635Z,51.10
2017-06-30T14:11:09.079Z,51.00
2017-06-30T14:13:35.543Z,50.60
2017-06-30T14:16:02.091Z,50.30
2017-06-30T14:18:28.543Z,50.20
2017-06-30T14:20:55.305Z,51.10
2017-06-30T14:23:21.805Z,50.50
2017-06-30T14:25:48.271Z,50.90
2017-06-30T14:28:14.697Z,51.00
2017-06-30T14:30:41.188Z,51.10
2017-06-30T14:33:07.660Z,50.70
2017-06-30T14:35:34.841Z,51.90
2017-06-30T14:38:02.135Z,51.90
2017-06-30T14:40:28.588Z,51.20
2017-06-30T14:42:55.784Z,48.60
2017-06-30T14:45:22.263Z,48.50
2017-06-30T14:47:49.360Z,48.30
2017-06-30T14:50:16.052Z,47.90
2017-06-30T14:52:42.610Z,48.00
2017-06-30T14:55:09.170Z,47.90
2017-06-30T14:57:35.607Z,47.60
2017-06-30T15:00:03.107Z,48.60
2017-06-30T15:02:29.575Z,48.50
2017-06-30T15:04:56.143Z,48.10
2017-06-30T15:07:22.583Z,47.00
2017-06-30T15:09:49.029Z,47.00
2017-06-30T15:12:15.485Z,46.00
2017-06-30T15:14:41.987Z,46.10
2017-06-30T15:17:08.684Z,46.40
2017-06-30T15:19:35.904Z,47.00
2017-06-30T15:22:02.484Z,47.00
2017-06-30T15:24:28.953Z,47.00
2017-06-30T15:26:55.936Z,47.00
2017-06-30T15:29:23.156Z,46.90
2017-06-30T15:31:49.584Z,46.30
2017-06-30T15:34:16.765Z,46.60
2017-06-30T15:36:43.222Z,46.60
2017-06-30T15:39:09.776Z,46.40
2017-06-30T15:41:36.218Z,45.80
2017-06-30T15:44:03.399Z,46.20
2017-06-30T15:46:29.841Z,46.10
2017-06-30T15:48:56.321Z,46.70
2017-06-30T15:51:22.782Z,46.80
2017-06-30T15:53:49.270Z,47.50
2017-06-30T15:58:01.593Z,47.70
2017-06-30T16:00:28.975Z,47.70
2017-06-30T16:02:55.454Z,47.10
2017-06-30T16:05:22.665Z,46.10
2017-06-30T16:07:49.141Z,46.10
2017-06-30T16:10:15.638Z,46.30
2017-06-30T16:12:42.813Z,46.90
2017-06-30T16:15:10.002Z,47.60
2017-06-30T16:17:37.282Z,47.10
2017-06-30T16:20:03.767Z,47.10
2017-06-30T16:22:30.209Z,46.30
2017-06-30T16:24:56.660Z,47.30
2017-06-30T16:27:23.910Z,48.10
2017-06-30T16:29:51.092Z,47.10
2017-06-30T16:32:18.368Z,47.40
2017-06-30T16:34:44.843Z,47.30
2017-06-30T16:37:11.382Z,47.60
2017-06-30T16:39:37.871Z,48.00
2017-06-30T16:42:04.400Z,47.60
2017-06-30T16:44:30.955Z,46.80
2017-06-30T16:46:57.514Z,46.70
2017-06-30T16:49:23.919Z,47.00
2017-06-30T16:51:50.931Z,47.00
2017-06-30T16:54:18.211Z,47.40
2017-06-30T16:56:44.656Z,47.40
2017-06-30T16:59:11.941Z,47.60
2017-06-30T17:01:38.387Z,47.60
2017-06-30T17:04:05.633Z,48.40
2017-06-30T17:06:32.097Z,48.40
2017-06-30T17:08:59.285Z,48.20
2017-06-30T17:11:26.463Z,47.90
2017-06-30T17:13:52.928Z,47.90
2017-06-30T17:16:19.406Z,47.70
2017-06-30T17:18:45.948Z,47.90
2017-06-30T17:21:12.423Z,48.10
2017-06-30T17:23:38.958Z,48.40
2017-06-30T17:26:05.414Z,48.20
2017-06-30T17:28:31.884Z,48.30
2017-06-30T17:30:58.329Z,48.70
2017-06-30T17:33:24.885Z,49.20
2017-06-30T17:35:51.340Z,49.20
2017-06-30T17:38:18.562Z,49.30
2017-06-30T17:40:45.028Z,49.60
2017-06-30T17:43:11.502Z,49.80
2017-06-30T17:45:38.763Z,50.40
2017-06-30T17:48:05.311Z,50.50
2017-06-30T17:50:31.776Z,50.40
2017-06-30T17:52:58.273Z,50.10
2017-06-30T17:55:24.745Z,49.90
2017-06-30T17:57:51.177Z,50.10
2017-06-30T18:00:18.380Z,49.90
2017-06-30T18:02:44.915Z,49.80
2017-06-30T18:05:11.478Z,50.20
2017-06-30T18:07:37.964Z,50.60
2017-06-30T18:10:04.471Z,50.90
2017-06-30T18:12:31.767Z,51.60
2017-06-30T18:14:58.249Z,51.60
2017-06-30T18:17:24.734Z,52.20
2017-06-30T18:19:51.234Z,52.50
2017-06-30T18:22:17.792Z,52.40
2017-06-30T18:24:44.350Z,52.30
2017-06-30T18:27:10.912Z,52.60
2017-06-30T18:29:37.390Z,53.00
2017-06-30T18:32:03.864Z,53.40
2017-06-30T18:34:30.386Z,53.50
2017-06-30T18:36:56.857Z,53.80
2017-06-30T18:39:23.351Z,53.90
2017-06-30T18:41:49.795Z,54.30
2017-06-30T18:44:16.252Z,54.60
2017-06-30T18:46:42.867Z,54.90
2017-06-30T18:49:09.383Z,55.30
2017-06-30T18:51:36.393Z,55.70
2017-06-30T18:54:03.483Z,56.00
2017-06-30T18:56:29.973Z,56.20
2017-06-30T18:58:56.445Z,56.60
2017-06-30T19:01:22.928Z,57.00
2017-06-30T19:03:49.446Z,57.10
2017-06-30T19:06:16.125Z,57.70
2017-06-30T19:08:42.868Z,58.10
2017-06-30T19:11:10.186Z,58.40
2017-06-30T19:13:36.666Z,58.40
2017-06-30T19:16:03.206Z,58.80
2017-06-30T19:18:29.762Z,59.40
2017-06-30T19:20:56.320Z,59.40
2017-06-30T19:23:22.876Z,59.90
2017-06-30T19:25:49.436Z,60.80
2017-06-30T19:28:15.996Z,61.40
2017-06-30T19:30:42.554Z,62.30
2017-06-30T19:33:09.067Z,62.80
2017-06-30T19:35:35.566Z,63.30
2017-06-30T19:38:02.123Z,64.00
2017-06-30T19:40:28.683Z,65.50
2017-06-30T19:42:56.352Z,65.00
2017-06-30T19:45:23.643Z,66.00
2017-06-30T19:47:50.099Z,65.90
2017-06-30T19:50:16.559Z,66.60
2017-06-30T19:52:43.113Z,66.80
2017-06-30T19:55:09.600Z,67.00
2017-06-30T19:57:36.127Z,67.10
2017-06-30T20:00:02.688Z,67.60
2017-06-30T20:02:29.156Z,68.00
2017-06-30T20:04:55.803Z,68.50
2017-06-30T20:07:22.668Z,68.90
2017-06-30T20:09:49.595Z,69.40
2017-06-30T20:12:16.144Z,69.90
2017-06-30T20:14:42.875Z,70.40
2017-06-30T20:17:09.412Z,70.70
2017-06-30T20:19:36.359Z,71.30
2017-06-30T20:22:03.810Z,72.00
2017-06-30T20:24:30.314Z,72.00
2017-06-30T20:26:56.766Z,72.30
2017-06-30T20:29:24.047Z,72.90
2017-06-30T20:31:50.604Z,72.80
2017-06-30T20:34:17.043Z,73.20
2017-06-30T20:36:44.333Z,73.80
2017-06-30T20:39:11.813Z,73.70
2017-06-30T20:41:38.271Z,73.80
2017-06-30T20:44:04.829Z,74.00
2017-06-30T20:46:31.263Z,74.30
2017-06-30T20:48:58.558Z,75.00
2017-06-30T20:51:25.651Z,74.90
2017-06-30T20:53:52.152Z,75.20
2017-06-30T20:56:19.340Z,76.00
2017-06-30T20:58:46.551Z,76.70
2017-06-30T21:01:13.018Z,75.90
2017-06-30T21:03:39.646Z,76.20
2017-06-30T21:06:06.134Z,76.40
2017-06-30T21:08:32.663Z,76.40
2017-06-30T21:10:59.218Z,76.60
2017-06-30T21:13:25.687Z,76.50
2017-06-30T21:15:52.162Z,76.70
2017-06-30T21:18:18.630Z,76.70
2017-06-30T21:20:45.696Z,77.10
2017-06-30T21:23:12.331Z,77.30
2017-06-30T21:25:38.875Z,77.60
2017-06-30T21:28:05.327Z,77.60
2017-06-30T21:30:32.535Z,78.30
2017-06-30T21:32:58.970Z,78.20
2017-06-30T21:35:25.425Z,78.30
2017-06-30T21:37:51.982Z,78.30
2017-06-30T21:40:18.542Z,78.40
2017-06-30T21:42:45.400Z,78.70
2017-06-30T21:45:11.960Z,78.90
2017-06-30T21:47:38.437Z,78.90
2017-06-30T21:50:04.922Z,79.00
2017-06-30T21:52:31.490Z,79.00
2017-06-30T21:54:58.295Z,79.10
2017-06-30T21:57:24.725Z,79.10
2017-06-30T21:59:51.914Z,79.40
2017-06-30T22:02:19.200Z,79.30
2017-06-30T22:04:45.650Z,79.10
2017-06-30T22:07:12.212Z,79.20
2017-06-30T22:09:39.176Z,79.40
2017-06-30T22:12:05.735Z,79.50
2017-06-30T22:14:32.186Z,79.60
2017-06-30T22:16:59.477Z,79.70
2017-06-30T22:19:25.964Z,79.70
2017-06-30T22:21:52.481Z,79.60
2017-06-30T22:24:19.549Z,79.60
2017-06-30T22:26:46.023Z,79.50
2017-06-30T22:29:12.473Z,79.50
2017-06-30T22:31:38.913Z,80.00
2017-06-30T22:34:06.108Z,79.50
2017-06-30T22:36:32.551Z,79.50
2017-06-30T22:38:59.104Z,79.30
2017-06-30T22:41:25.565Z,79.30
2017-06-30T22:43:52.053Z,80.30
2017-06-30T22:46:18.467Z,79.20
2017-06-30T22:48:45.692Z,79.40
2017-06-30T22:51:13.111Z,79.40
2017-06-30T22:53:40.602Z,79.50
2017-06-30T22:56:07.164Z,79.50
2017-06-30T22:58:33.626Z,79.60
2017-06-30T23:01:00.176Z,79.60
2017-06-30T23:03:26.625Z,79.60
2017-06-30T23:05:53.911Z,79.70
2017-06-30T23:08:20.367Z,79.60
2017-06-30T23:10:46.922Z,79.70
2017-06-30T23:13:13.359Z,79.80
2017-06-30T23:15:40.555Z,80.60
2017-06-30T23:18:07.121Z,80.00
2017-06-30T23:20:33.581Z,80.10
2017-06-30T23:23:00.036Z,80.90
2017-06-30T23:25:26.681Z,80.20
2017-06-30T23:27:53.197Z,80.40
2017-06-30T23:30:19.799Z,80.50
2017-06-30T23:32:46.292Z,80.60
2017-06-30T23:35:12.915Z,80.60
2017-06-30T23:37:39.425Z,80.70
2017-06-30T23:40:05.999Z,80.80
2017-06-30T23:42:32.593Z,80.70
2017-06-30T23:44:59.148Z,80.70
2017-06-30T23:47:25.810Z,80.70
2017-06-30T23:50:14.764Z,80.90
2017-06-30T23:52:41.273Z,80.90
2017-06-30T23:55:07.862Z,81.00
2017-06-30T23:57:35.076Z,80.90
